sensor_id;sensor_type;location;lat;lon;timestamp;temperature;humidity
46652;DHT22;32377;52.182;5.398;2023-02-21T00:01:15;9.00;99.90
46652;DHT22;32377;52.182;5.398;2023-02-21T00:03:59;9.00;99.90
46652;DHT22;32377;52.182;5.398;2023-02-21T00:06:44;9.00;99.90
46652;DHT22;32377;52.182;5.398;2023-02-21T00:09:28;9.00;99.90
46652;DHT22;32377;52.182;5.398;2023-02-21T00:12:12;9.00;99.90
46652;DHT22;32377;52.182;5.398;2023-02-21T00:14:56;9.00;99.90
46652;DHT22;32377;52.182;5.398;2023-02-21T00:17:40;9.00;99.90
46652;DHT22;32377;52.182;5.398;2023-02-21T00:20:24;9.00;99.90
46652;DHT22;32377;52.182;5.398;2023-02-21T00:23:09;9.00;99.90
46652;DHT22;32377;52.182;5.398;2023-02-21T00:25:53;9.10;99.90
46652;DHT22;32377;52.182;5.398;2023-02-21T00:28:37;9.00;99.90
46652;DHT22;32377;52.182;5.398;2023-02-21T00:31:21;9.00;99.90
46652;DHT22;32377;52.182;5.398;2023-02-21T00:34:05;9.10;99.90
46652;DHT22;32377;52.182;5.398;2023-02-21T00:36:51;9.10;99.90
46652;DHT22;32377;52.182;5.398;2023-02-21T00:39:35;9.10;99.90
46652;DHT22;32377;52.182;5.398;2023-02-21T00:42:20;9.10;99.90
46652;DHT22;32377;52.182;5.398;2023-02-21T00:45:04;9.10;99.90
46652;DHT22;32377;52.182;5.398;2023-02-21T00:47:48;9.00;99.90
46652;DHT22;32377;52.182;5.398;2023-02-21T00:50:32;9.00;99.90
46652;DHT22;32377;52.182;5.398;2023-02-21T00:53:16;9.00;99.90
46652;DHT22;32377;52.182;5.398;2023-02-21T00:56:00;9.00;99.90
46652;DHT22;32377;52.182;5.398;2023-02-21T00:58:44;9.00;99.90
46652;DHT22;32377;52.182;5.398;2023-02-21T01:01:28;9.00;99.90
46652;DHT22;32377;52.182;5.398;2023-02-21T01:04:13;9.00;99.90
46652;DHT22;32377;52.182;5.398;2023-02-21T01:06:57;9.00;99.90
46652;DHT22;32377;52.182;5.398;2023-02-21T01:09:41;9.00;99.90
46652;DHT22;32377;52.182;5.398;2023-02-21T01:12:25;9.00;99.90
46652;DHT22;32377;52.182;5.398;2023-02-21T01:15:09;9.00;99.90
46652;DHT22;32377;52.182;5.398;2023-02-21T01:17:53;9.00;99.90
46652;DHT22;32377;52.182;5.398;2023-02-21T01:20:38;9.00;99.90
46652;DHT22;32377;52.182;5.398;2023-02-21T01:23:22;9.00;99.90
46652;DHT22;32377;52.182;5.398;2023-02-21T01:26:08;9.00;99.90
46652;DHT22;32377;52.182;5.398;2023-02-21T01:28:52;9.00;99.90
46652;DHT22;32377;52.182;5.398;2023-02-21T01:31:36;8.90;99.90
46652;DHT22;32377;52.182;5.398;2023-02-21T01:34:20;9.00;99.90
46652;DHT22;32377;52.182;5.398;2023-02-21T01:37:04;9.00;99.90
46652;DHT22;32377;52.182;5.398;2023-02-21T01:39:49;9.00;99.90
46652;DHT22;32377;52.182;5.398;2023-02-21T01:42:34;9.00;99.90
46652;DHT22;32377;52.182;5.398;2023-02-21T01:48:10;9.00;99.90
46652;DHT22;32377;52.182;5.398;2023-02-21T01:50:57;8.90;99.90
46652;DHT22;32377;52.182;5.398;2023-02-21T01:53:42;8.90;99.90
46652;DHT22;32377;52.182;5.398;2023-02-21T01:56:27;9.00;99.90
46652;DHT22;32377;52.182;5.398;2023-02-21T01:59:12;9.00;99.90
46652;DHT22;32377;52.182;5.398;2023-02-21T02:02:12;9.00;99.90
46652;DHT22;32377;52.182;5.398;2023-02-21T02:04:57;9.00;99.90
46652;DHT22;32377;52.182;5.398;2023-02-21T02:07:43;9.00;99.90
46652;DHT22;32377;52.182;5.398;2023-02-21T02:10:27;9.00;99.90
46652;DHT22;32377;52.182;5.398;2023-02-21T02:30:02;9.00;99.90
46652;DHT22;32377;52.182;5.398;2023-02-21T02:33:01;9.00;99.90
46652;DHT22;32377;52.182;5.398;2023-02-21T02:35:31;9.00;99.90
46652;DHT22;32377;52.182;5.398;2023-02-21T02:38:09;9.00;99.90
46652;DHT22;32377;52.182;5.398;2023-02-21T02:41:03;9.00;99.90
46652;DHT22;32377;52.182;5.398;2023-02-21T02:43:52;9.00;99.90
46652;DHT22;32377;52.182;5.398;2023-02-21T02:46:27;9.10;99.90
46652;DHT22;32377;52.182;5.398;2023-02-21T02:48:59;9.10;99.90
46652;DHT22;32377;52.182;5.398;2023-02-21T02:51:27;9.10;99.90
46652;DHT22;32377;52.182;5.398;2023-02-21T02:53:54;9.00;99.90
46652;DHT22;32377;52.182;5.398;2023-02-21T02:56:20;9.10;99.90
46652;DHT22;32377;52.182;5.398;2023-02-21T02:59:12;9.10;99.90
46652;DHT22;32377;52.182;5.398;2023-02-21T03:04:39;9.00;99.90
46652;DHT22;32377;52.182;5.398;2023-02-21T03:07:25;9.10;99.90
46652;DHT22;32377;52.182;5.398;2023-02-21T03:10:20;9.10;99.90
46652;DHT22;32377;52.182;5.398;2023-02-21T03:13:03;9.10;99.90
46652;DHT22;32377;52.182;5.398;2023-02-21T03:15:37;9.10;99.90
46652;DHT22;32377;52.182;5.398;2023-02-21T03:18:15;9.10;99.90
46652;DHT22;32377;52.182;5.398;2023-02-21T03:20:42;9.10;99.90
46652;DHT22;32377;52.182;5.398;2023-02-21T03:23:12;9.10;99.90
46652;DHT22;32377;52.182;5.398;2023-02-21T03:25:39;9.00;99.90
46652;DHT22;32377;52.182;5.398;2023-02-21T03:28:05;9.10;99.90
46652;DHT22;32377;52.182;5.398;2023-02-21T03:30:31;9.00;99.90
46652;DHT22;32377;52.182;5.398;2023-02-21T03:32:57;9.10;99.90
46652;DHT22;32377;52.182;5.398;2023-02-21T03:35:23;9.10;99.90
46652;DHT22;32377;52.182;5.398;2023-02-21T03:37:53;9.10;99.90
46652;DHT22;32377;52.182;5.398;2023-02-21T03:40:27;9.10;99.90
46652;DHT22;32377;52.182;5.398;2023-02-21T03:42:54;9.10;99.90
46652;DHT22;32377;52.182;5.398;2023-02-21T03:45:20;9.10;99.90
46652;DHT22;32377;52.182;5.398;2023-02-21T03:47:46;9.10;99.90
46652;DHT22;32377;52.182;5.398;2023-02-21T03:50:12;9.10;99.90
46652;DHT22;32377;52.182;5.398;2023-02-21T03:52:37;9.10;99.90
46652;DHT22;32377;52.182;5.398;2023-02-21T03:55:03;9.10;99.90
46652;DHT22;32377;52.182;5.398;2023-02-21T03:57:29;9.10;99.90
46652;DHT22;32377;52.182;5.398;2023-02-21T03:59:55;9.10;99.90
46652;DHT22;32377;52.182;5.398;2023-02-21T04:02:21;9.10;99.90
46652;DHT22;32377;52.182;5.398;2023-02-21T04:04:47;9.10;99.90
46652;DHT22;32377;52.182;5.398;2023-02-21T04:07:14;9.10;99.90
46652;DHT22;32377;52.182;5.398;2023-02-21T04:09:40;9.10;99.90
46652;DHT22;32377;52.182;5.398;2023-02-21T04:12:06;9.10;99.90
46652;DHT22;32377;52.182;5.398;2023-02-21T04:14:31;9.10;99.90
46652;DHT22;32377;52.182;5.398;2023-02-21T04:16:57;9.10;99.90
46652;DHT22;32377;52.182;5.398;2023-02-21T04:19:23;9.10;99.90
46652;DHT22;32377;52.182;5.398;2023-02-21T04:21:49;9.00;99.90
46652;DHT22;32377;52.182;5.398;2023-02-21T04:24:15;9.10;99.90
46652;DHT22;32377;52.182;5.398;2023-02-21T04:26:41;9.10;99.90
46652;DHT22;32377;52.182;5.398;2023-02-21T04:29:06;9.00;99.90
46652;DHT22;32377;52.182;5.398;2023-02-21T04:31:32;9.00;99.90
46652;DHT22;32377;52.182;5.398;2023-02-21T04:33:58;9.00;99.90
46652;DHT22;32377;52.182;5.398;2023-02-21T04:36:24;9.00;99.90
46652;DHT22;32377;52.182;5.398;2023-02-21T04:38:50;9.00;99.90
46652;DHT22;32377;52.182;5.398;2023-02-21T04:41:16;9.00;99.90
46652;DHT22;32377;52.182;5.398;2023-02-21T04:43:42;9.00;99.90
46652;DHT22;32377;52.182;5.398;2023-02-21T04:46:09;9.00;99.90
46652;DHT22;32377;52.182;5.398;2023-02-21T04:48:35;9.00;99.90
46652;DHT22;32377;52.182;5.398;2023-02-21T04:51:01;9.00;99.90
46652;DHT22;32377;52.182;5.398;2023-02-21T04:53:26;9.00;99.90
46652;DHT22;32377;52.182;5.398;2023-02-21T04:59:09;9.00;99.90
46652;DHT22;32377;52.182;5.398;2023-02-21T05:01:35;9.00;99.90
46652;DHT22;32377;52.182;5.398;2023-02-21T05:04:01;9.00;99.90
46652;DHT22;32377;52.182;5.398;2023-02-21T05:06:28;9.00;99.90
46652;DHT22;32377;52.182;5.398;2023-02-21T05:08:55;9.00;99.90
46652;DHT22;32377;52.182;5.398;2023-02-21T05:11:21;9.00;99.90
46652;DHT22;32377;52.182;5.398;2023-02-21T05:13:48;9.00;99.90
46652;DHT22;32377;52.182;5.398;2023-02-21T05:16:14;9.00;99.90
46652;DHT22;32377;52.182;5.398;2023-02-21T05:18:44;9.00;99.90
46652;DHT22;32377;52.182;5.398;2023-02-21T05:21:10;9.00;99.90
46652;DHT22;32377;52.182;5.398;2023-02-21T05:23:38;9.00;99.90
46652;DHT22;32377;52.182;5.398;2023-02-21T05:26:12;9.00;99.90
46652;DHT22;32377;52.182;5.398;2023-02-21T05:28:38;9.00;99.90
46652;DHT22;32377;52.182;5.398;2023-02-21T05:31:04;9.00;99.90
46652;DHT22;32377;52.182;5.398;2023-02-21T05:33:30;9.00;99.90
46652;DHT22;32377;52.182;5.398;2023-02-21T05:35:57;9.00;99.90
46652;DHT22;32377;52.182;5.398;2023-02-21T05:38:23;9.00;99.90
46652;DHT22;32377;52.182;5.398;2023-02-21T05:40:49;9.00;99.90
46652;DHT22;32377;52.182;5.398;2023-02-21T05:43:14;9.00;99.90
46652;DHT22;32377;52.182;5.398;2023-02-21T05:45:40;9.00;99.90
46652;DHT22;32377;52.182;5.398;2023-02-21T05:48:06;9.00;99.90
46652;DHT22;32377;52.182;5.398;2023-02-21T05:50:32;9.00;99.90
46652;DHT22;32377;52.182;5.398;2023-02-21T05:52:58;9.00;99.90
46652;DHT22;32377;52.182;5.398;2023-02-21T05:55:25;9.00;99.90
46652;DHT22;32377;52.182;5.398;2023-02-21T05:57:51;9.00;99.90
46652;DHT22;32377;52.182;5.398;2023-02-21T06:00:26;9.00;99.90
46652;DHT22;32377;52.182;5.398;2023-02-21T06:02:53;9.00;99.90
46652;DHT22;32377;52.182;5.398;2023-02-21T06:05:19;9.00;99.90
46652;DHT22;32377;52.182;5.398;2023-02-21T06:07:46;9.00;99.90
46652;DHT22;32377;52.182;5.398;2023-02-21T06:10:11;9.00;99.90
46652;DHT22;32377;52.182;5.398;2023-02-21T06:12:37;9.00;99.90
46652;DHT22;32377;52.182;5.398;2023-02-21T06:15:03;9.00;99.90
46652;DHT22;32377;52.182;5.398;2023-02-21T06:17:35;9.00;99.90
46652;DHT22;32377;52.182;5.398;2023-02-21T06:20:01;9.00;99.90
46652;DHT22;32377;52.182;5.398;2023-02-21T06:22:27;9.00;99.90
46652;DHT22;32377;52.182;5.398;2023-02-21T06:24:52;9.00;99.90
46652;DHT22;32377;52.182;5.398;2023-02-21T06:27:18;9.00;99.90
46652;DHT22;32377;52.182;5.398;2023-02-21T06:29:44;9.00;99.90
46652;DHT22;32377;52.182;5.398;2023-02-21T06:32:09;9.00;99.90
46652;DHT22;32377;52.182;5.398;2023-02-21T06:34:35;9.00;99.90
46652;DHT22;32377;52.182;5.398;2023-02-21T06:37:01;9.00;99.90
46652;DHT22;32377;52.182;5.398;2023-02-21T06:39:26;9.00;99.90
46652;DHT22;32377;52.182;5.398;2023-02-21T06:41:52;9.00;99.90
46652;DHT22;32377;52.182;5.398;2023-02-21T06:44:18;9.00;99.90
46652;DHT22;32377;52.182;5.398;2023-02-21T06:46:44;9.00;99.90
46652;DHT22;32377;52.182;5.398;2023-02-21T06:49:11;9.00;99.90
46652;DHT22;32377;52.182;5.398;2023-02-21T06:51:39;9.00;99.90
46652;DHT22;32377;52.182;5.398;2023-02-21T06:54:05;9.00;99.90
46652;DHT22;32377;52.182;5.398;2023-02-21T06:56:35;9.00;99.90
46652;DHT22;32377;52.182;5.398;2023-02-21T06:59:00;9.00;99.90
46652;DHT22;32377;52.182;5.398;2023-02-21T07:01:27;9.00;99.90
46652;DHT22;32377;52.182;5.398;2023-02-21T07:03:53;9.00;99.90
46652;DHT22;32377;52.182;5.398;2023-02-21T07:06:19;9.00;99.90
46652;DHT22;32377;52.182;5.398;2023-02-21T07:08:45;9.00;99.90
46652;DHT22;32377;52.182;5.398;2023-02-21T07:11:11;8.90;99.90
46652;DHT22;32377;52.182;5.398;2023-02-21T07:13:37;8.90;99.90
46652;DHT22;32377;52.182;5.398;2023-02-21T07:16:04;8.90;99.90
46652;DHT22;32377;52.182;5.398;2023-02-21T07:18:29;8.90;99.90
46652;DHT22;32377;52.182;5.398;2023-02-21T07:20:56;8.90;99.90
46652;DHT22;32377;52.182;5.398;2023-02-21T07:23:22;8.90;99.90
46652;DHT22;32377;52.182;5.398;2023-02-21T07:25:47;9.00;99.90
46652;DHT22;32377;52.182;5.398;2023-02-21T07:28:13;9.00;99.90
46652;DHT22;32377;52.182;5.398;2023-02-21T07:30:39;9.00;99.90
46652;DHT22;32377;52.182;5.398;2023-02-21T07:33:05;8.90;99.90
46652;DHT22;32377;52.182;5.398;2023-02-21T07:35:30;9.00;99.90
46652;DHT22;32377;52.182;5.398;2023-02-21T07:37:56;8.90;99.90
46652;DHT22;32377;52.182;5.398;2023-02-21T07:40:22;8.90;99.90
46652;DHT22;32377;52.182;5.398;2023-02-21T07:42:48;8.90;99.90
46652;DHT22;32377;52.182;5.398;2023-02-21T07:45:14;9.00;99.90
46652;DHT22;32377;52.182;5.398;2023-02-21T07:47:40;9.00;99.90
46652;DHT22;32377;52.182;5.398;2023-02-21T07:50:08;9.00;99.90
46652;DHT22;32377;52.182;5.398;2023-02-21T07:52:34;9.00;99.90
46652;DHT22;32377;52.182;5.398;2023-02-21T07:55:00;9.00;99.90
46652;DHT22;32377;52.182;5.398;2023-02-21T07:57:26;9.00;99.90
46652;DHT22;32377;52.182;5.398;2023-02-21T07:59:51;9.00;99.90
46652;DHT22;32377;52.182;5.398;2023-02-21T08:02:17;9.00;99.90
46652;DHT22;32377;52.182;5.398;2023-02-21T08:04:43;9.10;99.90
46652;DHT22;32377;52.182;5.398;2023-02-21T08:07:08;9.00;99.90
46652;DHT22;32377;52.182;5.398;2023-02-21T08:09:35;9.00;99.90
46652;DHT22;32377;52.182;5.398;2023-02-21T08:12:02;9.00;99.90
46652;DHT22;32377;52.182;5.398;2023-02-21T08:14:28;9.10;99.90
46652;DHT22;32377;52.182;5.398;2023-02-21T08:16:54;9.10;99.90
46652;DHT22;32377;52.182;5.398;2023-02-21T08:19:19;9.10;99.90
46652;DHT22;32377;52.182;5.398;2023-02-21T08:21:48;9.10;99.90
46652;DHT22;32377;52.182;5.398;2023-02-21T08:24:15;9.10;99.90
46652;DHT22;32377;52.182;5.398;2023-02-21T08:26:41;9.10;99.90
46652;DHT22;32377;52.182;5.398;2023-02-21T08:29:13;9.10;99.90
46652;DHT22;32377;52.182;5.398;2023-02-21T08:31:40;9.00;99.90
46652;DHT22;32377;52.182;5.398;2023-02-21T08:34:06;9.10;99.90
46652;DHT22;32377;52.182;5.398;2023-02-21T08:36:34;9.10;99.90
46652;DHT22;32377;52.182;5.398;2023-02-21T08:39:00;9.10;99.90
46652;DHT22;32377;52.182;5.398;2023-02-21T08:41:34;9.10;99.90
46652;DHT22;32377;52.182;5.398;2023-02-21T08:44:00;9.10;99.90
46652;DHT22;32377;52.182;5.398;2023-02-21T08:46:26;9.20;99.90
46652;DHT22;32377;52.182;5.398;2023-02-21T08:48:52;9.20;99.90
46652;DHT22;32377;52.182;5.398;2023-02-21T08:51:17;9.20;99.90
46652;DHT22;32377;52.182;5.398;2023-02-21T08:53:43;9.20;99.90
46652;DHT22;32377;52.182;5.398;2023-02-21T08:56:08;9.20;99.90
46652;DHT22;32377;52.182;5.398;2023-02-21T08:58:35;9.20;99.90
46652;DHT22;32377;52.182;5.398;2023-02-21T09:01:01;9.30;99.90
46652;DHT22;32377;52.182;5.398;2023-02-21T09:03:26;9.30;99.90
46652;DHT22;32377;52.182;5.398;2023-02-21T09:05:52;9.20;99.90
46652;DHT22;32377;52.182;5.398;2023-02-21T09:08:17;9.20;99.90
46652;DHT22;32377;52.182;5.398;2023-02-21T09:10:45;9.20;99.90
46652;DHT22;32377;52.182;5.398;2023-02-21T09:13:14;9.30;99.90
46652;DHT22;32377;52.182;5.398;2023-02-21T09:15:40;9.30;99.90
46652;DHT22;32377;52.182;5.398;2023-02-21T09:18:05;9.30;99.90
46652;DHT22;32377;52.182;5.398;2023-02-21T09:20:31;9.30;99.90
46652;DHT22;32377;52.182;5.398;2023-02-21T09:22:57;9.30;99.90
46652;DHT22;32377;52.182;5.398;2023-02-21T09:25:24;9.30;99.90
46652;DHT22;32377;52.182;5.398;2023-02-21T09:27:50;9.30;99.90
46652;DHT22;32377;52.182;5.398;2023-02-21T09:30:19;9.30;99.90
46652;DHT22;32377;52.182;5.398;2023-02-21T09:32:46;9.30;99.90
46652;DHT22;32377;52.182;5.398;2023-02-21T09:35:13;9.30;99.90
46652;DHT22;32377;52.182;5.398;2023-02-21T09:37:42;9.30;99.90
46652;DHT22;32377;52.182;5.398;2023-02-21T09:42:53;9.30;99.90
46652;DHT22;32377;52.182;5.398;2023-02-21T09:45:20;9.30;99.90
46652;DHT22;32377;52.182;5.398;2023-02-21T09:47:52;9.40;99.90
46652;DHT22;32377;52.182;5.398;2023-02-21T09:50:31;9.40;99.90
46652;DHT22;32377;52.182;5.398;2023-02-21T09:52:59;9.40;99.90
46652;DHT22;32377;52.182;5.398;2023-02-21T09:55:36;9.40;99.90
46652;DHT22;32377;52.182;5.398;2023-02-21T09:58:10;9.40;99.90
46652;DHT22;32377;52.182;5.398;2023-02-21T10:00:37;9.40;99.90
46652;DHT22;32377;52.182;5.398;2023-02-21T10:05:56;9.40;99.90
46652;DHT22;32377;52.182;5.398;2023-02-21T10:08:53;9.40;99.90
46652;DHT22;32377;52.182;5.398;2023-02-21T10:11:28;9.40;99.90
46652;DHT22;32377;52.182;5.398;2023-02-21T10:17:34;9.50;99.90
46652;DHT22;32377;52.182;5.398;2023-02-21T10:20:02;9.50;99.90
46652;DHT22;32377;52.182;5.398;2023-02-21T10:22:36;9.60;99.90
46652;DHT22;32377;52.182;5.398;2023-02-21T10:25:23;9.60;99.90
46652;DHT22;32377;52.182;5.398;2023-02-21T10:27:51;9.60;99.90
46652;DHT22;32377;52.182;5.398;2023-02-21T10:30:33;9.60;99.90
46652;DHT22;32377;52.182;5.398;2023-02-21T10:33:03;9.60;99.90
46652;DHT22;32377;52.182;5.398;2023-02-21T10:35:33;9.60;99.90
46652;DHT22;32377;52.182;5.398;2023-02-21T10:38:01;9.60;99.90
46652;DHT22;32377;52.182;5.398;2023-02-21T10:40:38;9.70;99.90
46652;DHT22;32377;52.182;5.398;2023-02-21T10:43:40;9.70;99.90
46652;DHT22;32377;52.182;5.398;2023-02-21T10:48:40;9.90;99.90
46652;DHT22;32377;52.182;5.398;2023-02-21T10:51:15;9.80;99.90
46652;DHT22;32377;52.182;5.398;2023-02-21T10:53:44;9.80;99.90
46652;DHT22;32377;52.182;5.398;2023-02-21T10:59:06;9.80;99.90
46652;DHT22;32377;52.182;5.398;2023-02-21T11:01:47;9.90;99.90
46652;DHT22;32377;52.182;5.398;2023-02-21T11:07:06;9.90;99.90
46652;DHT22;32377;52.182;5.398;2023-02-21T11:09:40;9.80;99.90
46652;DHT22;32377;52.182;5.398;2023-02-21T11:12:16;9.90;99.90
46652;DHT22;32377;52.182;5.398;2023-02-21T11:17:23;9.90;99.90
46652;DHT22;32377;52.182;5.398;2023-02-21T11:25:32;10.10;99.90
46652;DHT22;32377;52.182;5.398;2023-02-21T11:30:33;10.00;99.90
46652;DHT22;32377;52.182;5.398;2023-02-21T11:33:01;10.00;99.90
46652;DHT22;32377;52.182;5.398;2023-02-21T11:35:34;10.00;99.90
46652;DHT22;32377;52.182;5.398;2023-02-21T11:38:07;10.00;99.90
46652;DHT22;32377;52.182;5.398;2023-02-21T11:40:50;9.90;99.90
46652;DHT22;32377;52.182;5.398;2023-02-21T11:43:23;9.90;99.90
46652;DHT22;32377;52.182;5.398;2023-02-21T11:48:23;9.90;99.90
46652;DHT22;32377;52.182;5.398;2023-02-21T11:50:57;9.90;99.90
46652;DHT22;32377;52.182;5.398;2023-02-21T11:53:30;9.90;99.90
46652;DHT22;32377;52.182;5.398;2023-02-21T12:01:34;9.90;99.90
46652;DHT22;32377;52.182;5.398;2023-02-21T12:04:12;9.90;99.90
46652;DHT22;32377;52.182;5.398;2023-02-21T12:06:53;10.00;99.90
46652;DHT22;32377;52.182;5.398;2023-02-21T12:23:06;9.80;99.90
46652;DHT22;32377;52.182;5.398;2023-02-21T12:28:43;9.80;99.90
46652;DHT22;32377;52.182;5.398;2023-02-21T12:34:37;9.80;99.90
46652;DHT22;32377;52.182;5.398;2023-02-21T12:37:11;9.70;99.90
46652;DHT22;32377;52.182;5.398;2023-02-21T12:48:18;9.80;99.90
46652;DHT22;32377;52.182;5.398;2023-02-21T12:50:52;9.80;99.90
46652;DHT22;32377;52.182;5.398;2023-02-21T12:53:23;9.80;99.90
46652;DHT22;32377;52.182;5.398;2023-02-21T12:56:06;9.70;99.90
46652;DHT22;32377;52.182;5.398;2023-02-21T12:58:48;9.80;99.90
46652;DHT22;32377;52.182;5.398;2023-02-21T13:01:43;9.70;99.90
46652;DHT22;32377;52.182;5.398;2023-02-21T13:07:31;9.80;99.90
46652;DHT22;32377;52.182;5.398;2023-02-21T13:10:23;9.80;99.90
46652;DHT22;32377;52.182;5.398;2023-02-21T13:12:56;9.80;99.90
46652;DHT22;32377;52.182;5.398;2023-02-21T13:15:28;9.70;99.90
46652;DHT22;32377;52.182;5.398;2023-02-21T13:20:38;9.70;99.90
46652;DHT22;32377;52.182;5.398;2023-02-21T13:23:23;9.70;99.90
46652;DHT22;32377;52.182;5.398;2023-02-21T13:29:01;9.80;99.90
46652;DHT22;32377;52.182;5.398;2023-02-21T13:31:33;9.80;99.90
46652;DHT22;32377;52.182;5.398;2023-02-21T13:34:07;9.80;99.90
46652;DHT22;32377;52.182;5.398;2023-02-21T13:36:40;9.80;99.90
46652;DHT22;32377;52.182;5.398;2023-02-21T13:39:20;9.80;99.90
46652;DHT22;32377;52.182;5.398;2023-02-21T13:41:55;9.90;99.90
46652;DHT22;32377;52.182;5.398;2023-02-21T13:44:30;9.90;99.90
46652;DHT22;32377;52.182;5.398;2023-02-21T13:49:46;9.90;99.90
46652;DHT22;32377;52.182;5.398;2023-02-21T14:08:30;9.80;99.90
46652;DHT22;32377;52.182;5.398;2023-02-21T14:18:50;9.80;99.90
46652;DHT22;32377;52.182;5.398;2023-02-21T14:21:40;9.80;99.90
46652;DHT22;32377;52.182;5.398;2023-02-21T14:24:27;9.80;99.90
46652;DHT22;32377;52.182;5.398;2023-02-21T14:26:56;9.80;99.90
46652;DHT22;32377;52.182;5.398;2023-02-21T14:29:45;9.80;99.90
46652;DHT22;32377;52.182;5.398;2023-02-21T14:32:42;9.90;99.90
46652;DHT22;32377;52.182;5.398;2023-02-21T14:38:14;9.80;99.90
46652;DHT22;32377;52.182;5.398;2023-02-21T14:49:19;9.70;99.90
46652;DHT22;32377;52.182;5.398;2023-02-21T14:52:01;9.70;99.90
46652;DHT22;32377;52.182;5.398;2023-02-21T15:00:46;9.70;99.90
46652;DHT22;32377;52.182;5.398;2023-02-21T15:03:20;9.70;99.90
46652;DHT22;32377;52.182;5.398;2023-02-21T15:06:09;9.70;99.90
46652;DHT22;32377;52.182;5.398;2023-02-21T15:08:45;9.70;99.90
46652;DHT22;32377;52.182;5.398;2023-02-21T15:16:44;9.50;99.90
46652;DHT22;32377;52.182;5.398;2023-02-21T15:25:27;9.40;99.90
46652;DHT22;32377;52.182;5.398;2023-02-21T15:27:27;9.50;99.90
46652;DHT22;32377;52.182;5.398;2023-02-21T15:32:58;9.40;99.90
46652;DHT22;32377;52.182;5.398;2023-02-21T15:35:35;9.30;99.90
46652;DHT22;32377;52.182;5.398;2023-02-21T15:38:06;9.40;99.90
46652;DHT22;32377;52.182;5.398;2023-02-21T15:40:32;9.40;99.90
46652;DHT22;32377;52.182;5.398;2023-02-21T15:43:00;9.40;99.90
46652;DHT22;32377;52.182;5.398;2023-02-21T15:45:31;9.30;99.90
46652;DHT22;32377;52.182;5.398;2023-02-21T15:47:58;9.30;99.90
46652;DHT22;32377;52.182;5.398;2023-02-21T15:50:35;9.40;99.90
46652;DHT22;32377;52.182;5.398;2023-02-21T15:53:22;9.40;99.90
46652;DHT22;32377;52.182;5.398;2023-02-21T15:55:48;9.40;99.90
46652;DHT22;32377;52.182;5.398;2023-02-21T15:58:24;9.40;99.90
46652;DHT22;32377;52.182;5.398;2023-02-21T16:01:05;9.40;99.90
46652;DHT22;32377;52.182;5.398;2023-02-21T16:03:38;9.40;99.90
46652;DHT22;32377;52.182;5.398;2023-02-21T16:09:35;9.20;99.90
46652;DHT22;32377;52.182;5.398;2023-02-21T16:11:39;9.20;99.90
46652;DHT22;32377;52.182;5.398;2023-02-21T16:14:15;9.30;99.90
46652;DHT22;32377;52.182;5.398;2023-02-21T16:16:41;9.20;99.90
46652;DHT22;32377;52.182;5.398;2023-02-21T16:19:07;9.20;99.90
46652;DHT22;32377;52.182;5.398;2023-02-21T16:21:33;9.10;99.90
46652;DHT22;32377;52.182;5.398;2023-02-21T16:24:26;9.10;99.90
46652;DHT22;32377;52.182;5.398;2023-02-21T16:27:03;9.10;99.90
46652;DHT22;32377;52.182;5.398;2023-02-21T16:29:29;9.10;99.90
46652;DHT22;32377;52.182;5.398;2023-02-21T16:31:55;9.10;99.90
46652;DHT22;32377;52.182;5.398;2023-02-21T16:34:21;9.10;99.90
46652;DHT22;32377;52.182;5.398;2023-02-21T16:36:46;9.10;99.90
46652;DHT22;32377;52.182;5.398;2023-02-21T16:39:12;9.10;99.90
46652;DHT22;32377;52.182;5.398;2023-02-21T16:41:38;9.10;99.90
46652;DHT22;32377;52.182;5.398;2023-02-21T16:44:03;9.00;99.90
46652;DHT22;32377;52.182;5.398;2023-02-21T16:46:29;9.00;99.90
46652;DHT22;32377;52.182;5.398;2023-02-21T16:48:55;9.00;99.90
46652;DHT22;32377;52.182;5.398;2023-02-21T16:51:21;9.10;99.90
46652;DHT22;32377;52.182;5.398;2023-02-21T16:53:47;9.00;99.90
46652;DHT22;32377;52.182;5.398;2023-02-21T16:59:10;8.90;99.90
46652;DHT22;32377;52.182;5.398;2023-02-21T17:01:37;8.90;99.90
46652;DHT22;32377;52.182;5.398;2023-02-21T17:04:15;8.90;99.90
46652;DHT22;32377;52.182;5.398;2023-02-21T17:06:41;8.90;99.90
46652;DHT22;32377;52.182;5.398;2023-02-21T17:09:08;8.90;99.90
46652;DHT22;32377;52.182;5.398;2023-02-21T17:11:35;8.80;99.90
46652;DHT22;32377;52.182;5.398;2023-02-21T17:14:00;8.80;99.90
46652;DHT22;32377;52.182;5.398;2023-02-21T17:16:26;8.80;99.90
46652;DHT22;32377;52.182;5.398;2023-02-21T17:18:51;8.80;99.90
46652;DHT22;32377;52.182;5.398;2023-02-21T17:21:17;8.80;99.90
46652;DHT22;32377;52.182;5.398;2023-02-21T17:23:42;8.80;99.90
46652;DHT22;32377;52.182;5.398;2023-02-21T17:26:08;8.80;99.90
46652;DHT22;32377;52.182;5.398;2023-02-21T17:28:37;8.80;99.90
46652;DHT22;32377;52.182;5.398;2023-02-21T17:31:04;8.80;99.90
46652;DHT22;32377;52.182;5.398;2023-02-21T17:33:29;8.80;99.90
46652;DHT22;32377;52.182;5.398;2023-02-21T17:35:55;8.80;99.90
46652;DHT22;32377;52.182;5.398;2023-02-21T17:38:20;8.80;99.90
46652;DHT22;32377;52.182;5.398;2023-02-21T17:40:46;8.80;99.90
46652;DHT22;32377;52.182;5.398;2023-02-21T17:43:14;8.80;99.90
46652;DHT22;32377;52.182;5.398;2023-02-21T17:45:40;8.80;99.90
46652;DHT22;32377;52.182;5.398;2023-02-21T17:48:06;8.70;99.90
46652;DHT22;32377;52.182;5.398;2023-02-21T17:50:31;8.70;99.90
46652;DHT22;32377;52.182;5.398;2023-02-21T17:52:57;8.70;99.90
46652;DHT22;32377;52.182;5.398;2023-02-21T17:55:24;8.70;99.90
46652;DHT22;32377;52.182;5.398;2023-02-21T17:57:50;8.70;99.90
46652;DHT22;32377;52.182;5.398;2023-02-21T18:00:23;8.70;99.90
46652;DHT22;32377;52.182;5.398;2023-02-21T18:02:50;8.70;99.90
46652;DHT22;32377;52.182;5.398;2023-02-21T18:05:16;8.70;99.90
46652;DHT22;32377;52.182;5.398;2023-02-21T18:07:46;8.60;99.90
46652;DHT22;32377;52.182;5.398;2023-02-21T18:10:12;8.60;99.90
46652;DHT22;32377;52.182;5.398;2023-02-21T18:12:37;8.60;99.90
46652;DHT22;32377;52.182;5.398;2023-02-21T18:15:05;8.60;99.90
46652;DHT22;32377;52.182;5.398;2023-02-21T18:17:31;8.60;99.90
46652;DHT22;32377;52.182;5.398;2023-02-21T18:19:56;8.60;99.90
46652;DHT22;32377;52.182;5.398;2023-02-21T18:22:22;8.60;99.90
46652;DHT22;32377;52.182;5.398;2023-02-21T18:24:48;8.60;99.90
46652;DHT22;32377;52.182;5.398;2023-02-21T18:27:13;8.60;99.90
46652;DHT22;32377;52.182;5.398;2023-02-21T18:29:40;8.60;99.90
46652;DHT22;32377;52.182;5.398;2023-02-21T18:32:06;8.60;99.90
46652;DHT22;32377;52.182;5.398;2023-02-21T18:34:31;8.50;99.90
46652;DHT22;32377;52.182;5.398;2023-02-21T18:36:57;8.50;99.90
46652;DHT22;32377;52.182;5.398;2023-02-21T18:39:23;8.50;99.90
46652;DHT22;32377;52.182;5.398;2023-02-21T18:41:49;8.50;99.90
46652;DHT22;32377;52.182;5.398;2023-02-21T18:44:15;8.50;99.90
46652;DHT22;32377;52.182;5.398;2023-02-21T18:46:50;8.50;99.90
46652;DHT22;32377;52.182;5.398;2023-02-21T18:49:19;8.50;99.90
46652;DHT22;32377;52.182;5.398;2023-02-21T18:51:44;8.50;99.90
46652;DHT22;32377;52.182;5.398;2023-02-21T18:54:10;8.50;99.90
46652;DHT22;32377;52.182;5.398;2023-02-21T18:56:36;8.50;99.90